Time;durP1;ratioP1;P1;durP2;ratioP2;P2;SDS_P1;SDS_P2;PMS_P1;PMS_P2;Temp;Humidity;BMP_temperature;BMP_pressure;BME280_temperature;BME280_humidity;BME280_pressure;Samples;Min_cycle;Max_cycle;Signal;HPM_P1;HPM_P2
2022/01/25 00:24:19;;;;;;;;;;;16.00;99.90;;;;;;5035117;28;1216;-52
2022/01/25 00:26:46;;;;;;;;;;;15.90;99.90;;;;;;5029134;28;1298;-45
2022/01/25 00:29:28;;;;;;;;;;;15.90;99.90;;;;;;5032985;28;1272;-45
2022/01/25 00:31:54;;;;;;;;;;;15.90;99.90;;;;;;5031277;28;1329;-45
2022/01/25 00:34:20;;;;;;;;;;;15.90;99.90;;;;;;5032233;28;1906;-52
2022/01/25 00:36:46;;;;;;;;;;;15.90;99.90;;;;;;5030314;28;1646;-46
2022/01/25 00:39:12;;;;;;;;;;;15.80;99.90;;;;;;5036695;28;1215;-45
2022/01/25 00:41:38;;;;;;;;;;;15.80;99.90;;;;;;5052808;28;781;-45
2022/01/25 00:44:05;;;;;;;;;;;15.80;99.90;;;;;;5046587;28;1014;-52
2022/01/25 00:46:31;;;;;;;;;;;15.80;99.90;;;;;;5054803;28;904;-52
2022/01/25 00:49:02;;;;;;;;;;;15.80;99.90;;;;;;5030299;28;1376;-52
2022/01/25 00:56:23;;;;;;;;;;;15.70;99.90;;;;;;5047726;28;977;-45
2022/01/25 00:58:49;;;;;;;;;;;15.70;99.90;;;;;;5054384;28;846;-45
2022/01/25 01:01:16;;;;;;;;;;;15.60;99.90;;;;;;5054431;28;908;-45
2022/01/25 01:03:42;;;;;;;;;;;15.60;99.90;;;;;;5054620;28;818;-52
2022/01/25 01:06:09;;;;;;;;;;;15.60;99.90;;;;;;5054555;28;762;-45
2022/01/25 01:08:35;;;;;;;;;;;15.60;99.90;;;;;;5054303;28;1441;-45
2022/01/25 01:11:02;;;;;;;;;;;15.60;99.90;;;;;;5054189;28;758;-52
2022/01/25 01:32:50;;;;;;;;;;;15.30;99.90;;;;;;5038976;28;939;-45
2022/01/25 01:43:01;;;;;;;;;;;15.30;99.90;;;;;;5050266;28;861;-45
2022/01/25 01:48:04;;;;;;;;;;;15.20;99.90;;;;;;5037409;28;796;-45
2022/01/25 01:50:34;;;;;;;;;;;15.20;99.90;;;;;;5040235;28;1255;-52
2022/01/25 01:53:02;;;;;;;;;;;15.20;99.90;;;;;;5053947;28;762;-45
2022/01/25 01:55:28;;;;;;;;;;;15.20;99.90;;;;;;5053974;28;1914;-45
2022/01/25 01:57:54;;;;;;;;;;;15.20;99.90;;;;;;5053771;28;901;-52
2022/01/25 02:00:23;;;;;;;;;;;15.10;99.90;;;;;;5053241;28;993;-52
2022/01/25 02:02:49;;;;;;;;;;;15.10;99.90;;;;;;5053438;28;1000;-45
2022/01/25 02:05:15;;;;;;;;;;;15.10;99.90;;;;;;5053854;28;817;-45
2022/01/25 02:07:41;;;;;;;;;;;15.10;99.90;;;;;;5050941;28;812;-45
2022/01/25 02:10:08;;;;;;;;;;;15.10;99.90;;;;;;5035545;28;759;-45
2022/01/25 02:12:34;;;;;;;;;;;15.10;99.90;;;;;;5049323;28;757;-45
2022/01/25 02:15:04;;;;;;;;;;;15.00;99.90;;;;;;5053746;28;1993;-45
2022/01/25 02:22:56;;;;;;;;;;;15.00;99.90;;;;;;5033494;28;739;-52
2022/01/25 02:25:23;;;;;;;;;;;14.90;99.90;;;;;;5035338;28;726;-52
2022/01/25 02:27:50;;;;;;;;;;;14.90;99.90;;;;;;5037578;28;1835;-46
2022/01/25 02:30:17;;;;;;;;;;;14.90;99.90;;;;;;5002048;28;999;-50
2022/01/25 02:32:44;;;;;;;;;;;14.80;99.90;;;;;;4997414;28;899;-46
2022/01/25 02:35:11;;;;;;;;;;;14.80;99.90;;;;;;4968886;28;1906;-45
2022/01/25 02:37:38;;;;;;;;;;;14.80;99.90;;;;;;4994323;28;1014;-50
2022/01/25 02:40:05;;;;;;;;;;;14.80;99.90;;;;;;4995298;28;1074;-52
2022/01/25 02:42:31;;;;;;;;;;;14.80;99.90;;;;;;4997334;28;1234;-52
2022/01/25 02:44:58;;;;;;;;;;;14.80;99.90;;;;;;4996232;28;994;-52
2022/01/25 02:50:09;;;;;;;;;;;14.80;99.90;;;;;;4997599;28;805;-45
2022/01/25 02:52:35;;;;;;;;;;;14.70;99.90;;;;;;4997294;28;922;-45
2022/01/25 02:55:00;;;;;;;;;;;14.70;99.90;;;;;;4997175;28;1980;-45
2022/01/25 02:57:26;;;;;;;;;;;14.70;99.90;;;;;;4997452;28;878;-45
2022/01/25 02:59:52;;;;;;;;;;;14.70;99.90;;;;;;4997973;28;795;-45
2022/01/25 03:02:18;;;;;;;;;;;14.70;99.90;;;;;;4998283;28;842;-45
2022/01/25 03:04:45;;;;;;;;;;;14.70;99.90;;;;;;4997813;28;908;-46
2022/01/25 03:07:11;;;;;;;;;;;14.60;99.90;;;;;;4997674;28;1010;-45
2022/01/25 03:09:39;;;;;;;;;;;14.70;99.90;;;;;;4996652;28;1465;-45
2022/01/25 03:12:07;;;;;;;;;;;14.70;99.90;;;;;;4993943;28;864;-45
2022/01/25 03:14:46;;;;;;;;;;;14.60;99.90;;;;;;4993214;28;1985;-45
2022/01/25 03:17:13;;;;;;;;;;;14.60;99.90;;;;;;4997454;28;1039;-46
2022/01/25 03:19:47;;;;;;;;;;;14.60;99.90;;;;;;5001716;28;1003;-45
2022/01/25 03:22:17;;;;;;;;;;;14.60;99.90;;;;;;5037907;28;939;-45
2022/01/25 03:24:43;;;;;;;;;;;14.50;99.90;;;;;;5022483;28;1149;-45
2022/01/25 03:27:09;;;;;;;;;;;14.50;99.90;;;;;;5038082;28;786;-45
2022/01/25 03:29:35;;;;;;;;;;;14.50;99.90;;;;;;5038235;28;895;-45
2022/01/25 03:32:02;;;;;;;;;;;14.50;99.90;;;;;;5038019;28;802;-45
2022/01/25 03:34:28;;;;;;;;;;;14.50;99.90;;;;;;5037770;28;1967;-45
2022/01/25 03:36:54;;;;;;;;;;;14.50;99.90;;;;;;5038043;28;816;-45
2022/01/25 03:39:22;;;;;;;;;;;14.40;99.90;;;;;;5037807;28;881;-45
2022/01/25 03:41:48;;;;;;;;;;;14.40;99.90;;;;;;5037768;28;1054;-45
2022/01/25 03:44:16;;;;;;;;;;;14.40;99.90;;;;;;5037733;28;757;-45
2022/01/25 03:47:08;;;;;;;;;;;14.40;99.90;;;;;;5037781;28;820;-45
2022/01/25 03:52:13;;;;;;;;;;;14.40;99.90;;;;;;5055948;28;817;-45
2022/01/25 03:54:39;;;;;;;;;;;14.40;99.90;;;;;;5042964;28;1910;-45
2022/01/25 03:57:05;;;;;;;;;;;14.40;99.90;;;;;;5036525;28;833;-45
2022/01/25 03:59:31;;;;;;;;;;;14.40;99.90;;;;;;5037573;28;852;-45
2022/01/25 04:01:57;;;;;;;;;;;14.40;99.90;;;;;;5037715;28;884;-45
2022/01/25 04:04:25;;;;;;;;;;;14.30;99.90;;;;;;5036538;28;907;-45
2022/01/25 04:06:53;;;;;;;;;;;14.30;99.90;;;;;;5037337;28;962;-45
2022/01/25 04:09:21;;;;;;;;;;;14.30;99.90;;;;;;5037231;28;921;-45
2022/01/25 04:11:47;;;;;;;;;;;14.30;99.90;;;;;;5037479;28;809;-45
2022/01/25 04:14:13;;;;;;;;;;;14.30;99.90;;;;;;5037126;28;1918;-45
2022/01/25 04:16:50;;;;;;;;;;;14.30;99.90;;;;;;5036858;28;913;-45
2022/01/25 04:19:30;;;;;;;;;;;14.30;99.90;;;;;;5040928;28;896;-45
2022/01/25 04:27:10;;;;;;;;;;;14.30;99.90;;;;;;5037086;28;789;-52
2022/01/25 04:29:36;;;;;;;;;;;14.20;99.90;;;;;;5036804;28;835;-52
2022/01/25 04:32:05;;;;;;;;;;;14.20;99.90;;;;;;5037001;28;836;-52
2022/01/25 04:56:09;;;;;;;;;;;14.00;99.90;;;;;;5054679;28;1917;-52
2022/01/25 04:58:44;;;;;;;;;;;14.00;99.90;;;;;;5054322;28;989;-45
2022/01/25 05:01:10;;;;;;;;;;;14.00;99.90;;;;;;5054496;28;828;-45
2022/01/25 05:03:54;;;;;;;;;;;14.00;99.90;;;;;;5054797;28;855;-45
2022/01/25 05:06:21;;;;;;;;;;;14.00;99.90;;;;;;5041351;28;790;-46
2022/01/25 05:08:52;;;;;;;;;;;14.00;99.90;;;;;;5035830;28;897;-45
2022/01/25 05:11:28;;;;;;;;;;;14.00;99.90;;;;;;5042401;28;1251;-45
2022/01/25 05:16:59;;;;;;;;;;;14.00;99.90;;;;;;5054302;28;1910;-45
2022/01/25 05:19:36;;;;;;;;;;;14.00;99.90;;;;;;5051873;28;1592;-45
2022/01/25 05:22:07;;;;;;;;;;;14.00;99.90;;;;;;5054453;28;908;-45
2022/01/25 05:24:35;;;;;;;;;;;13.90;99.90;;;;;;5036688;28;1018;-45
2022/01/25 05:27:01;;;;;;;;;;;13.90;99.90;;;;;;5035342;28;995;-45
2022/01/25 05:29:27;;;;;;;;;;;13.90;99.90;;;;;;5035444;28;1017;-45
2022/01/25 05:31:53;;;;;;;;;;;13.90;99.90;;;;;;5030771;28;841;-45
2022/01/25 05:34:19;;;;;;;;;;;13.90;99.90;;;;;;5035548;28;1902;-45
2022/01/25 05:36:45;;;;;;;;;;;13.90;99.90;;;;;;5035955;28;758;-45
2022/01/25 05:39:15;;;;;;;;;;;13.90;99.90;;;;;;5035430;28;952;-45
2022/01/25 05:41:42;;;;;;;;;;;13.90;99.90;;;;;;5046813;28;861;-45
2022/01/25 05:46:44;;;;;;;;;;;13.90;99.90;;;;;;5036188;28;854;-45
2022/01/25 05:49:10;;;;;;;;;;;13.90;99.90;;;;;;5035738;28;793;-45
2022/01/25 05:51:36;;;;;;;;;;;13.80;99.90;;;;;;5039204;28;1262;-45
2022/01/25 05:54:02;;;;;;;;;;;13.80;99.90;;;;;;5035679;28;811;-45
2022/01/25 05:56:28;;;;;;;;;;;13.70;99.90;;;;;;5035482;28;1973;-45
2022/01/25 05:58:54;;;;;;;;;;;13.80;99.90;;;;;;5034815;28;793;-45
2022/01/25 06:01:20;;;;;;;;;;;13.80;99.90;;;;;;5035142;28;942;-45
2022/01/25 06:04:07;;;;;;;;;;;13.80;99.90;;;;;;5021318;28;1559;-45
2022/01/25 06:06:52;;;;;;;;;;;13.80;99.90;;;;;;5021436;28;1532;-45
2022/01/25 06:09:40;;;;;;;;;;;13.80;99.90;;;;;;5021322;28;1467;-45
2022/01/25 06:12:26;;;;;;;;;;;13.90;99.90;;;;;;5030997;28;1578;-45
2022/01/25 06:15:12;;;;;;;;;;;13.90;99.90;;;;;;5021130;28;1977;-45
2022/01/25 06:17:58;;;;;;;;;;;13.90;99.90;;;;;;5033229;28;1456;-45
2022/01/25 06:20:44;;;;;;;;;;;13.90;99.90;;;;;;5039669;28;1429;-45
2022/01/25 06:23:30;;;;;;;;;;;14.00;99.90;;;;;;5037741;28;1452;-45
2022/01/25 06:26:16;;;;;;;;;;;14.00;99.90;;;;;;5024851;28;1441;-45
2022/01/25 06:29:02;;;;;;;;;;;14.10;99.90;;;;;;5024984;28;1389;-45
2022/01/25 06:31:48;;;;;;;;;;;14.20;99.90;;;;;;5025026;28;1496;-45
2022/01/25 06:34:57;;;;;;;;;;;14.20;99.90;;;;;;5034711;28;1875;-48
2022/01/25 06:37:43;;;;;;;;;;;14.30;99.90;;;;;;5003986;28;1732;-45
2022/01/25 06:40:29;;;;;;;;;;;14.30;99.90;;;;;;4985377;28;1432;-45
2022/01/25 06:43:15;;;;;;;;;;;14.40;99.90;;;;;;4985136;28;1449;-45
2022/01/25 06:46:03;;;;;;;;;;;14.50;99.90;;;;;;4985098;28;1501;-45
2022/01/25 06:48:49;;;;;;;;;;;14.50;99.90;;;;;;4985241;28;1433;-45
2022/01/25 06:51:35;;;;;;;;;;;14.60;99.90;;;;;;4985223;28;1612;-45
2022/01/25 06:54:21;;;;;;;;;;;14.60;99.90;;;;;;4985561;28;1497;-45
2022/01/25 06:57:08;;;;;;;;;;;14.70;99.90;;;;;;4984935;28;1500;-52
2022/01/25 06:59:54;;;;;;;;;;;14.80;99.90;;;;;;4985807;28;1435;-52
2022/01/25 07:02:41;;;;;;;;;;;14.80;99.90;;;;;;4985036;28;1559;-52
2022/01/25 07:05:28;;;;;;;;;;;14.80;99.90;;;;;;4984737;28;1591;-52
2022/01/25 07:08:14;;;;;;;;;;;14.90;99.90;;;;;;4994862;28;1539;-52
2022/01/25 07:10:59;;;;;;;;;;;14.90;99.90;;;;;;4984894;28;1528;-52
2022/01/25 07:13:47;;;;;;;;;;;14.90;99.90;;;;;;4985284;28;1537;-52
2022/01/25 07:16:33;;;;;;;;;;;15.00;99.90;;;;;;4984482;28;1910;-52
2022/01/25 07:19:18;;;;;;;;;;;15.00;99.90;;;;;;4984753;28;1566;-52
2022/01/25 07:22:06;;;;;;;;;;;15.10;99.90;;;;;;4983759;28;1616;-52
2022/01/25 07:24:52;;;;;;;;;;;15.10;99.90;;;;;;4984715;28;1551;-52
2022/01/25 07:27:39;;;;;;;;;;;15.20;99.90;;;;;;4984676;28;1437;-52
2022/01/25 07:30:25;;;;;;;;;;;15.20;99.90;;;;;;4993729;28;1570;-52
2022/01/25 07:33:12;;;;;;;;;;;15.30;99.90;;;;;;4984740;28;1445;-52
2022/01/25 07:35:58;;;;;;;;;;;15.30;99.90;;;;;;4989387;28;1911;-52
2022/01/25 07:38:44;;;;;;;;;;;15.30;99.90;;;;;;5013746;28;1477;-52
2022/01/25 07:41:31;;;;;;;;;;;15.30;99.90;;;;;;5001997;28;1510;-52
2022/01/25 07:44:17;;;;;;;;;;;15.30;99.90;;;;;;5014881;28;1519;-52
2022/01/25 07:47:03;;;;;;;;;;;15.30;99.90;;;;;;4998048;28;1542;-52
2022/01/25 07:49:49;;;;;;;;;;;15.30;99.90;;;;;;4998589;28;1484;-52
2022/01/25 07:52:37;;;;;;;;;;;15.40;99.90;;;;;;5016060;28;1603;-52
2022/01/25 07:55:23;;;;;;;;;;;15.40;99.90;;;;;;4985162;28;1915;-51
2022/01/25 07:58:08;;;;;;;;;;;15.40;99.90;;;;;;4998788;28;1538;-52
2022/01/25 08:00:55;;;;;;;;;;;15.50;99.90;;;;;;5000553;28;1592;-52
2022/01/25 08:03:42;;;;;;;;;;;15.50;99.90;;;;;;5014680;28;1621;-52
2022/01/25 08:06:29;;;;;;;;;;;15.50;99.90;;;;;;5014963;28;1589;-52
2022/01/25 08:09:16;;;;;;;;;;;15.60;99.90;;;;;;5009381;28;1739;-52
2022/01/25 08:12:05;;;;;;;;;;;15.60;99.90;;;;;;5002435;28;1612;-52
2022/01/25 08:14:51;;;;;;;;;;;15.60;99.90;;;;;;5002852;28;1898;-52
2022/01/25 08:17:38;;;;;;;;;;;15.60;99.90;;;;;;5001009;28;1395;-52
2022/01/25 08:20:24;;;;;;;;;;;15.60;99.90;;;;;;5007211;28;1481;-52
2022/01/25 08:23:09;;;;;;;;;;;15.70;99.90;;;;;;4999772;28;1485;-52
2022/01/25 08:25:55;;;;;;;;;;;15.70;99.90;;;;;;5001714;28;1426;-52
2022/01/25 08:28:41;;;;;;;;;;;15.70;99.90;;;;;;5012403;28;1450;-52
2022/01/25 08:31:27;;;;;;;;;;;15.70;99.90;;;;;;5000582;28;1441;-52
2022/01/25 08:34:13;;;;;;;;;;;15.70;99.90;;;;;;5002878;28;1465;-52
2022/01/25 08:37:00;;;;;;;;;;;15.80;99.90;;;;;;4995464;28;1963;-52
2022/01/25 08:39:46;;;;;;;;;;;15.70;99.90;;;;;;5000668;28;1476;-52
2022/01/25 08:42:32;;;;;;;;;;;15.80;99.90;;;;;;5013621;28;1446;-52
2022/01/25 08:45:18;;;;;;;;;;;15.80;99.90;;;;;;5001429;28;1445;-52
2022/01/25 08:48:04;;;;;;;;;;;15.80;99.90;;;;;;5002237;28;1470;-52
2022/01/25 08:50:50;;;;;;;;;;;15.80;99.90;;;;;;5000856;28;1643;-52
2022/01/25 08:53:35;;;;;;;;;;;15.90;99.90;;;;;;5002214;28;1543;-45
2022/01/25 08:56:21;;;;;;;;;;;15.90;99.90;;;;;;5001538;28;1914;-45
2022/01/25 08:59:08;;;;;;;;;;;15.90;99.90;;;;;;5002069;28;1657;-45
2022/01/25 09:01:54;;;;;;;;;;;15.90;99.90;;;;;;5016089;28;1651;-45
2022/01/25 09:04:41;;;;;;;;;;;15.90;99.90;;;;;;5015905;28;1516;-45
2022/01/25 09:07:27;;;;;;;;;;;16.00;99.90;;;;;;5014769;28;1459;-45
2022/01/25 09:10:14;;;;;;;;;;;16.00;99.90;;;;;;5001612;28;1417;-52
2022/01/25 09:13:00;;;;;;;;;;;16.00;99.90;;;;;;4999836;28;1550;-52
2022/01/25 09:15:47;;;;;;;;;;;16.00;99.90;;;;;;4999765;28;1872;-52
2022/01/25 09:18:32;;;;;;;;;;;16.00;99.90;;;;;;5001854;28;1397;-52
2022/01/25 09:21:20;;;;;;;;;;;16.10;99.90;;;;;;5013871;28;1587;-52
2022/01/25 09:24:06;;;;;;;;;;;16.10;99.90;;;;;;5002245;28;1684;-52
2022/01/25 09:26:53;;;;;;;;;;;16.10;99.90;;;;;;5013532;28;2039;-52
2022/01/25 09:29:41;;;;;;;;;;;16.10;99.90;;;;;;5010770;28;1530;-52
2022/01/25 09:32:29;;;;;;;;;;;16.10;99.90;;;;;;4999199;28;1592;-52
2022/01/25 09:35:17;;;;;;;;;;;16.10;99.90;;;;;;5001844;28;1977;-52
2022/01/25 09:38:03;;;;;;;;;;;16.20;99.90;;;;;;4998629;28;1566;-52
2022/01/25 09:40:50;;;;;;;;;;;16.20;99.90;;;;;;4999407;28;1401;-52
2022/01/25 09:43:36;;;;;;;;;;;16.20;99.90;;;;;;4997659;28;1547;-52
2022/01/25 09:46:22;;;;;;;;;;;16.30;99.90;;;;;;4984267;28;1504;-52
2022/01/25 09:49:08;;;;;;;;;;;16.30;99.90;;;;;;5014599;28;1499;-52
2022/01/25 09:51:55;;;;;;;;;;;16.40;99.90;;;;;;4999842;28;1437;-52
2022/01/25 09:54:42;;;;;;;;;;;16.40;99.90;;;;;;5002965;28;1424;-52
2022/01/25 09:57:28;;;;;;;;;;;16.50;99.90;;;;;;5008359;28;1607;-52
2022/01/25 10:00:17;;;;;;;;;;;16.50;99.90;;;;;;5009165;28;1501;-52
2022/01/25 10:03:21;;;;;;;;;;;16.60;99.90;;;;;;5004922;28;1531;-52
2022/01/25 10:06:15;;;;;;;;;;;16.60;99.90;;;;;;5017224;28;1466;-52
2022/01/25 10:09:02;;;;;;;;;;;16.60;99.90;;;;;;5005400;28;1580;-52
2022/01/25 10:11:49;;;;;;;;;;;16.70;99.90;;;;;;5014764;28;1434;-52
2022/01/25 10:14:36;;;;;;;;;;;16.70;99.90;;;;;;5001017;28;1475;-52
2022/01/25 10:17:29;;;;;;;;;;;16.80;99.90;;;;;;5001439;28;1504;-52
2022/01/25 10:20:29;;;;;;;;;;;16.80;99.90;;;;;;5000858;28;1662;-52
2022/01/25 10:23:18;;;;;;;;;;;16.80;99.90;;;;;;5003432;28;1640;-52
2022/01/25 10:26:04;;;;;;;;;;;16.80;99.90;;;;;;5005054;28;1615;-52
2022/01/25 10:28:51;;;;;;;;;;;16.90;99.90;;;;;;5002734;28;1655;-52
2022/01/25 10:31:41;;;;;;;;;;;16.90;99.90;;;;;;5003267;28;1338;-45
2022/01/25 10:34:30;;;;;;;;;;;16.90;99.90;;;;;;4979052;28;1678;-45
2022/01/25 10:37:17;;;;;;;;;;;16.90;99.90;;;;;;5016686;28;1910;-45
2022/01/25 10:40:03;;;;;;;;;;;17.00;99.90;;;;;;5032366;28;1674;-45
2022/01/25 10:42:49;;;;;;;;;;;17.00;99.90;;;;;;5019007;28;1535;-46
2022/01/25 10:45:35;;;;;;;;;;;17.00;99.90;;;;;;5027661;28;1503;-45
2022/01/25 10:48:28;;;;;;;;;;;17.00;99.90;;;;;;5018968;28;1558;-45
2022/01/25 10:51:17;;;;;;;;;;;17.00;99.90;;;;;;5017792;28;1563;-45
2022/01/25 10:54:09;;;;;;;;;;;17.00;99.90;;;;;;5016571;28;1338;-45
2022/01/25 10:56:57;;;;;;;;;;;17.00;99.90;;;;;;5017809;28;1966;-45
2022/01/25 10:59:54;;;;;;;;;;;17.00;99.90;;;;;;5031353;28;1559;-45
2022/01/25 11:02:52;;;;;;;;;;;17.00;99.90;;;;;;5017804;28;1606;-45
2022/01/25 11:05:38;;;;;;;;;;;17.00;99.90;;;;;;5003525;28;1603;-45
2022/01/25 11:08:27;;;;;;;;;;;17.00;99.90;;;;;;5017248;28;1453;-45
2022/01/25 11:11:32;;;;;;;;;;;17.00;99.90;;;;;;5029303;28;1594;-46
2022/01/25 11:17:26;;;;;;;;;;;17.10;99.90;;;;;;5038415;28;1902;-46
2022/01/25 11:20:11;;;;;;;;;;;17.10;99.90;;;;;;5022830;28;1511;-45
2022/01/25 11:22:58;;;;;;;;;;;17.00;99.90;;;;;;5007060;28;1413;-45
2022/01/25 11:25:51;;;;;;;;;;;17.00;99.90;;;;;;5036079;28;1460;-46
2022/01/25 11:28:38;;;;;;;;;;;16.90;99.90;;;;;;5034598;28;1621;-45
2022/01/25 11:31:27;;;;;;;;;;;17.00;99.90;;;;;;5017286;28;1440;-45
2022/01/25 11:34:13;;;;;;;;;;;16.90;99.90;;;;;;5015924;28;1500;-45
2022/01/25 11:37:04;;;;;;;;;;;16.90;99.90;;;;;;5005685;28;1939;-45
2022/01/25 11:39:52;;;;;;;;;;;16.80;99.90;;;;;;5004081;28;1460;-45
2022/01/25 11:42:45;;;;;;;;;;;16.80;99.90;;;;;;5017129;28;1479;-45
2022/01/25 11:45:32;;;;;;;;;;;16.80;99.90;;;;;;5007234;28;1675;-45
2022/01/25 11:48:23;;;;;;;;;;;16.80;99.90;;;;;;5003039;28;1664;-45
2022/01/25 11:51:14;;;;;;;;;;;16.80;99.90;;;;;;4989603;28;1402;-45
2022/01/25 11:54:01;;;;;;;;;;;16.80;99.90;;;;;;5003309;28;1477;-46
2022/01/25 11:56:47;;;;;;;;;;;16.80;99.90;;;;;;5016702;28;1898;-46
2022/01/25 11:59:34;;;;;;;;;;;16.70;99.90;;;;;;5005963;28;1441;-47
2022/01/25 12:02:42;;;;;;;;;;;16.70;99.90;;;;;;5014490;28;1465;-46
2022/01/25 12:05:28;;;;;;;;;;;16.70;99.90;;;;;;4993652;28;1424;-46
2022/01/25 12:08:15;;;;;;;;;;;16.70;99.90;;;;;;5001574;28;1492;-46
2022/01/25 12:11:21;;;;;;;;;;;16.70;99.90;;;;;;5016608;28;1437;-46
2022/01/25 12:14:10;;;;;;;;;;;16.70;99.90;;;;;;5002800;28;1448;-46
2022/01/25 12:16:58;;;;;;;;;;;16.60;99.90;;;;;;5014927;28;1903;-46
2022/01/25 12:20:03;;;;;;;;;;;16.60;99.90;;;;;;5003379;28;1469;-46
2022/01/25 12:23:17;;;;;;;;;;;16.60;99.90;;;;;;5022586;28;1468;-46
2022/01/25 12:26:07;;;;;;;;;;;16.60;99.90;;;;;;4988308;28;1326;-46
2022/01/25 12:29:14;;;;;;;;;;;16.60;99.90;;;;;;5000447;28;1627;-46
2022/01/25 12:32:19;;;;;;;;;;;16.60;99.90;;;;;;5007127;28;1439;-46
2022/01/25 12:35:12;;;;;;;;;;;16.50;99.90;;;;;;5014666;28;1629;-46
2022/01/25 12:38:02;;;;;;;;;;;16.50;99.90;;;;;;5001519;28;1464;-45
2022/01/25 12:41:09;;;;;;;;;;;16.50;99.90;;;;;;5009475;28;1441;-45
2022/01/25 12:43:57;;;;;;;;;;;16.40;99.90;;;;;;5002986;28;1512;-45
2022/01/25 12:46:44;;;;;;;;;;;16.40;99.90;;;;;;5011842;28;1440;-45
2022/01/25 12:49:30;;;;;;;;;;;16.40;99.90;;;;;;5008085;28;1598;-45
2022/01/25 12:52:17;;;;;;;;;;;16.40;99.90;;;;;;5005347;28;1488;-46
2022/01/25 12:55:03;;;;;;;;;;;16.30;99.90;;;;;;5003844;28;1711;-46
2022/01/25 12:57:50;;;;;;;;;;;16.30;99.90;;;;;;5019730;28;1483;-45
2022/01/25 13:00:42;;;;;;;;;;;16.30;99.90;;;;;;5006804;28;1570;-45
2022/01/25 13:03:29;;;;;;;;;;;16.20;99.90;;;;;;5019011;28;1404;-45
2022/01/25 13:06:20;;;;;;;;;;;16.20;99.90;;;;;;5012709;28;1163;-45
2022/01/25 13:09:15;;;;;;;;;;;16.20;99.90;;;;;;5002250;28;1475;-47
2022/01/25 13:14:51;;;;;;;;;;;16.20;99.90;;;;;;5004310;28;1564;-45
2022/01/25 13:17:38;;;;;;;;;;;16.10;99.90;;;;;;5010717;28;1973;-45
2022/01/25 13:20:24;;;;;;;;;;;16.10;99.90;;;;;;5003867;28;1433;-52
2022/01/25 13:23:12;;;;;;;;;;;16.10;99.90;;;;;;5007453;28;1392;-54
2022/01/25 13:26:12;;;;;;;;;;;16.10;99.90;;;;;;5002822;28;1453;-54
2022/01/25 13:30:38;;;;;;;;;;;16.10;99.90;;;;;;5001994;28;1417;-52
2022/01/25 13:32:09;;;;;;;;;;;16.10;99.90;;;;;;5006308;28;1602;-52
2022/01/25 13:35:48;;;;;;;;;;;16.10;99.90;;;;;;5001785;28;1504;-52
2022/01/25 13:38:32;;;;;;;;;;;16.10;99.90;;;;;;5001320;28;1524;-52
2022/01/25 13:41:28;;;;;;;;;;;16.10;99.90;;;;;;5002080;28;1425;-52
2022/01/25 13:47:22;;;;;;;;;;;16.30;99.90;;;;;;5007243;28;1551;-52
2022/01/25 13:50:08;;;;;;;;;;;16.30;99.90;;;;;;5022570;28;1646;-52
2022/01/25 13:52:54;;;;;;;;;;;16.30;99.90;;;;;;5012899;28;1426;-52
2022/01/25 13:55:47;;;;;;;;;;;16.30;99.90;;;;;;5011221;28;1972;-53
2022/01/25 13:58:35;;;;;;;;;;;16.30;99.90;;;;;;4999817;28;1588;-52
2022/01/25 14:01:22;;;;;;;;;;;16.20;99.90;;;;;;5000178;28;1437;-53
2022/01/25 14:04:14;;;;;;;;;;;16.20;99.90;;;;;;5003955;28;1460;-52
2022/01/25 14:07:01;;;;;;;;;;;16.20;99.90;;;;;;5004837;28;1487;-52
2022/01/25 14:09:50;;;;;;;;;;;16.20;99.90;;;;;;5005598;28;2008;-52
2022/01/25 14:22:10;;;;;;;;;;;16.30;99.90;;;;;;5000370;28;1406;-52
2022/01/25 14:24:57;;;;;;;;;;;16.30;99.90;;;;;;5000144;28;1550;-52
2022/01/25 14:27:52;;;;;;;;;;;16.30;99.90;;;;;;4999571;28;1441;-52
2022/01/25 14:30:40;;;;;;;;;;;16.30;99.90;;;;;;5006119;28;1625;-52
2022/01/25 14:33:27;;;;;;;;;;;16.20;99.90;;;;;;5001441;28;1566;-52
2022/01/25 14:36:15;;;;;;;;;;;16.20;99.90;;;;;;5008209;28;1914;-52
2022/01/25 14:39:02;;;;;;;;;;;16.20;99.90;;;;;;5000356;28;1475;-52
2022/01/25 14:41:48;;;;;;;;;;;16.20;99.90;;;;;;5004736;28;1509;-52
2022/01/25 14:44:38;;;;;;;;;;;16.20;99.90;;;;;;5018259;28;1413;-52
2022/01/25 14:47:31;;;;;;;;;;;16.20;99.90;;;;;;4990803;28;1420;-52
2022/01/25 14:50:32;;;;;;;;;;;16.20;99.90;;;;;;5005468;28;1465;-52
2022/01/25 14:53:20;;;;;;;;;;;16.20;99.90;;;;;;5002124;28;1541;-52
2022/01/25 14:56:26;;;;;;;;;;;16.20;99.90;;;;;;5018043;28;1961;-52
2022/01/25 14:59:24;;;;;;;;;;;16.20;99.90;;;;;;5004857;28;1529;-55
2022/01/25 15:02:13;;;;;;;;;;;16.20;99.90;;;;;;5012034;28;1674;-55
2022/01/25 15:05:01;;;;;;;;;;;16.20;99.90;;;;;;4994483;28;1450;-55
2022/01/25 15:07:47;;;;;;;;;;;16.10;99.90;;;;;;5013287;28;1434;-55
2022/01/25 15:10:34;;;;;;;;;;;16.10;99.90;;;;;;5007489;28;1517;-55
2022/01/25 15:13:28;;;;;;;;;;;16.10;99.90;;;;;;5010159;28;1953;-55
2022/01/25 15:16:18;;;;;;;;;;;16.10;99.90;;;;;;5004569;28;1910;-55
2022/01/25 15:19:05;;;;;;;;;;;16.10;99.90;;;;;;5003698;28;1453;-55
2022/01/25 15:21:51;;;;;;;;;;;16.00;99.90;;;;;;5002983;28;1534;-55
2022/01/25 15:24:41;;;;;;;;;;;16.00;99.90;;;;;;5017468;28;1394;-55
2022/01/25 15:27:30;;;;;;;;;;;16.00;99.90;;;;;;4989365;28;1500;-54
2022/01/25 15:30:16;;;;;;;;;;;16.00;99.90;;;;;;5003901;28;1443;-55
2022/01/25 15:33:02;;;;;;;;;;;16.00;99.90;;;;;;5003736;28;1445;-54
2022/01/25 15:35:48;;;;;;;;;;;16.00;99.90;;;;;;5015882;28;1907;-55
2022/01/25 15:38:36;;;;;;;;;;;16.00;99.90;;;;;;5002835;28;1607;-55
2022/01/25 15:41:24;;;;;;;;;;;16.00;99.90;;;;;;5015306;28;1461;-55
2022/01/25 15:44:11;;;;;;;;;;;16.00;99.90;;;;;;5007517;28;1652;-55
2022/01/25 15:46:59;;;;;;;;;;;16.00;99.90;;;;;;5010254;28;1700;-54
2022/01/25 15:49:47;;;;;;;;;;;16.00;99.90;;;;;;5015288;28;1476;-54
2022/01/25 15:52:33;;;;;;;;;;;16.00;99.90;;;;;;5000643;28;1593;-54
2022/01/25 15:55:19;;;;;;;;;;;16.00;99.90;;;;;;5002150;28;1642;-55
2022/01/25 15:58:05;;;;;;;;;;;16.00;99.90;;;;;;5015765;28;1512;-54
2022/01/25 16:00:51;;;;;;;;;;;16.00;99.90;;;;;;5011659;28;1457;-54
2022/01/25 16:03:38;;;;;;;;;;;16.00;99.90;;;;;;5000621;28;1577;-54
2022/01/25 16:06:24;;;;;;;;;;;16.00;99.90;;;;;;4962765;28;1481;-54
2022/01/25 16:09:12;;;;;;;;;;;16.00;99.90;;;;;;4962702;28;1409;-55
2022/01/25 16:11:58;;;;;;;;;;;16.00;99.90;;;;;;4976112;28;1421;-55
2022/01/25 16:14:45;;;;;;;;;;;16.10;99.90;;;;;;4963168;28;1575;-54
2022/01/25 16:17:31;;;;;;;;;;;16.10;99.90;;;;;;4953282;28;1918;-55
2022/01/25 16:20:17;;;;;;;;;;;16.10;99.90;;;;;;4957095;29;1546;-45
2022/01/25 16:23:05;;;;;;;;;;;16.10;99.90;;;;;;4956771;28;1583;-45
2022/01/25 16:25:51;;;;;;;;;;;16.20;99.90;;;;;;4944126;28;1702;-45
2022/01/25 16:28:37;;;;;;;;;;;16.20;99.90;;;;;;4957176;28;1542;-45
2022/01/25 16:31:29;;;;;;;;;;;16.20;99.90;;;;;;4944147;29;1619;-45
2022/01/25 16:34:16;;;;;;;;;;;16.30;99.90;;;;;;4956587;28;1486;-45
2022/01/25 16:37:02;;;;;;;;;;;16.30;99.90;;;;;;4974007;28;1961;-45
2022/01/25 16:39:47;;;;;;;;;;;16.30;99.90;;;;;;4981559;28;1437;-54
2022/01/25 16:42:33;;;;;;;;;;;16.30;99.90;;;;;;4996827;28;1422;-54
2022/01/25 16:45:21;;;;;;;;;;;16.40;99.90;;;;;;5014333;28;1492;-54
2022/01/25 16:48:07;;;;;;;;;;;16.30;99.90;;;;;;5013690;28;1440;-54
2022/01/25 16:50:55;;;;;;;;;;;16.30;99.90;;;;;;5031164;28;1452;-55
2022/01/25 16:53:45;;;;;;;;;;;16.30;99.90;;;;;;5015795;28;2109;-54
2022/01/25 16:56:31;;;;;;;;;;;16.30;99.90;;;;;;5018634;28;1910;-55
2022/01/25 16:59:19;;;;;;;;;;;16.30;99.90;;;;;;5034080;28;1523;-54
2022/01/25 17:02:10;;;;;;;;;;;16.30;99.90;;;;;;5034883;28;1561;-54
2022/01/25 17:04:56;;;;;;;;;;;16.30;99.90;;;;;;5034650;28;1435;-55
2022/01/25 17:07:43;;;;;;;;;;;16.20;99.90;;;;;;5012262;28;1455;-54
2022/01/25 17:10:29;;;;;;;;;;;16.20;99.90;;;;;;5029101;28;1382;-54
2022/01/25 17:13:15;;;;;;;;;;;16.20;99.90;;;;;;5016640;28;1456;-54
2022/01/25 17:16:02;;;;;;;;;;;16.20;99.90;;;;;;5014954;28;1967;-54
2022/01/25 17:18:50;;;;;;;;;;;16.20;99.90;;;;;;5021526;28;1638;-54
2022/01/25 17:21:36;;;;;;;;;;;16.10;99.90;;;;;;5015623;28;1415;-54
2022/01/25 17:24:25;;;;;;;;;;;16.10;99.90;;;;;;5015678;28;1499;-54
2022/01/25 17:27:11;;;;;;;;;;;16.10;99.90;;;;;;5016458;28;1435;-54
2022/01/25 17:29:57;;;;;;;;;;;16.10;99.90;;;;;;5016306;28;1438;-54
2022/01/25 17:32:43;;;;;;;;;;;16.10;99.90;;;;;;5013417;28;1585;-54
2022/01/25 17:35:29;;;;;;;;;;;16.00;99.90;;;;;;4996860;28;1635;-54
2022/01/25 17:38:15;;;;;;;;;;;16.00;99.90;;;;;;5014949;28;1903;-55
2022/01/25 17:41:01;;;;;;;;;;;16.00;99.90;;;;;;5015698;28;1558;-54
2022/01/25 17:43:47;;;;;;;;;;;16.00;99.90;;;;;;5002066;28;1494;-55
2022/01/25 17:46:34;;;;;;;;;;;16.00;99.90;;;;;;5001095;28;1349;-54
2022/01/25 17:49:22;;;;;;;;;;;16.00;99.90;;;;;;5015322;28;1472;-55
2022/01/25 17:52:08;;;;;;;;;;;15.90;99.90;;;;;;5015387;28;1523;-54
2022/01/25 17:54:56;;;;;;;;;;;15.90;99.90;;;;;;4987142;28;1405;-54
2022/01/25 17:57:43;;;;;;;;;;;15.90;99.90;;;;;;5011022;28;1969;-54
2022/01/25 18:00:28;;;;;;;;;;;15.90;99.90;;;;;;5015227;28;1547;-54
2022/01/25 18:03:18;;;;;;;;;;;15.90;99.90;;;;;;5001864;28;1485;-53